Lichtenvoorde, Netherlands
Current Conditions -  °F | °C
As of 1:55 AM on Wednesday 28 Jan 2015 (Local Time) from EHDL Reporting Station
Haze Haze  
Wind Chill: 31°   Ceiling: 400
Heat Index: 37°   Visibility: 2.1mi
Dew Point: 37°   Wind: 8mph
Humidity: 100%   Direction: 210°SSW
Pressure: 30.06"   Gusts: NA
Location:  51.99°N, 6.57°E
Report Text: EHDL 280055Z AUTO 21007KT 3500 BR SCT003 BKN004 BKN006 03/03 Q1018 YLO
Loading
Personal Weather Stations






























Interactive Weather Map New forecast layout! Learn more

10-Day Weather Forecast

Advertisements
Track Severe Weather on mobile